sensor_id;sensor_type;location;lat;lon;timestamp;P1;durP1;ratioP1;P2;durP2;ratioP2
26824;SDS011;14402;48.178;11.566;2023-04-03T00:00:04;7.2;;;4.3;;
26824;SDS011;14402;48.178;11.566;2023-04-03T00:00:33;6.3;;;4.2;;
26824;SDS011;14402;48.178;11.566;2023-04-03T00:01:04;5.5;;;4.2;;
26824;SDS011;14402;48.178;11.566;2023-04-03T00:01:34;5.5;;;4.2;;
26824;SDS011;14402;48.178;11.566;2023-04-03T00:02:04;5.5;;;4.2;;
26824;SDS011;14402;48.178;11.566;2023-04-03T00:02:34;7.9;;;4.3;;
26824;SDS011;14402;48.178;11.566;2023-04-03T00:03:04;10.3;;;4.4;;
26824;SDS011;14402;48.178;11.566;2023-04-03T00:03:34;10.3;;;4.4;;
26824;SDS011;14402;48.178;11.566;2023-04-03T00:04:04;10.3;;;4.4;;
26824;SDS011;14402;48.178;11.566;2023-04-03T00:04:34;8.7;;;4.3;;
26824;SDS011;14402;48.178;11.566;2023-04-03T00:05:04;7.1;;;4.2;;
26824;SDS011;14402;48.178;11.566;2023-04-03T00:05:34;7.1;;;4.2;;
26824;SDS011;14402;48.178;11.566;2023-04-03T00:06:04;7.1;;;4.2;;
26824;SDS011;14402;48.178;11.566;2023-04-03T00:06:34;6.7;;;4.1;;
26824;SDS011;14402;48.178;11.566;2023-04-03T00:07:04;6.3;;;3.9;;
26824;SDS011;14402;48.178;11.566;2023-04-03T00:07:35;6.3;;;3.9;;
26824;SDS011;14402;48.178;11.566;2023-04-03T00:08:05;6.3;;;3.9;;
26824;SDS011;14402;48.178;11.566;2023-04-03T00:08:35;6.8;;;4.0;;
26824;SDS011;14402;48.178;11.566;2023-04-03T00:09:05;7.3;;;4.0;;
26824;SDS011;14402;48.178;11.566;2023-04-03T00:09:35;7.3;;;4.0;;
26824;SDS011;14402;48.178;11.566;2023-04-03T00:10:05;7.3;;;4.0;;
26824;SDS011;14402;48.178;11.566;2023-04-03T00:10:35;7.6;;;4.0;;
26824;SDS011;14402;48.178;11.566;2023-04-03T00:11:05;7.8;;;4.0;;
26824;SDS011;14402;48.178;11.566;2023-04-03T00:11:35;7.8;;;4.0;;
26824;SDS011;14402;48.178;11.566;2023-04-03T00:12:05;7.8;;;4.0;;
26824;SDS011;14402;48.178;11.566;2023-04-03T00:12:35;6.6;;;3.8;;
26824;SDS011;14402;48.178;11.566;2023-04-03T00:13:06;5.3;;;3.7;;
26824;SDS011;14402;48.178;11.566;2023-04-03T00:13:36;5.3;;;3.7;;
26824;SDS011;14402;48.178;11.566;2023-04-03T00:14:06;5.3;;;3.7;;
26824;SDS011;14402;48.178;11.566;2023-04-03T00:14:36;6.1;;;3.7;;
26824;SDS011;14402;48.178;11.566;2023-04-03T00:15:06;6.8;;;3.7;;
26824;SDS011;14402;48.178;11.566;2023-04-03T00:15:36;6.8;;;3.7;;
26824;SDS011;14402;48.178;11.566;2023-04-03T00:16:06;6.8;;;3.7;;
26824;SDS011;14402;48.178;11.566;2023-04-03T00:16:36;6.4;;;3.8;;
26824;SDS011;14402;48.178;11.566;2023-04-03T00:17:07;6.0;;;3.8;;
26824;SDS011;14402;48.178;11.566;2023-04-03T00:17:38;6.0;;;3.8;;
26824;SDS011;14402;48.178;11.566;2023-04-03T00:18:07;6.0;;;3.8;;
26824;SDS011;14402;48.178;11.566;2023-04-03T00:18:37;6.8;;;3.8;;
26824;SDS011;14402;48.178;11.566;2023-04-03T00:19:07;7.7;;;3.8;;
26824;SDS011;14402;48.178;11.566;2023-04-03T00:19:37;7.7;;;3.8;;
26824;SDS011;14402;48.178;11.566;2023-04-03T00:20:07;7.7;;;3.8;;
26824;SDS011;14402;48.178;11.566;2023-04-03T00:20:37;6.1;;;3.8;;
26824;SDS011;14402;48.178;11.566;2023-04-03T00:21:07;4.5;;;3.7;;
26824;SDS011;14402;48.178;11.566;2023-04-03T00:21:37;4.5;;;3.7;;
26824;SDS011;14402;48.178;11.566;2023-04-03T00:22:07;4.5;;;3.7;;
26824;SDS011;14402;48.178;11.566;2023-04-03T00:22:37;4.6;;;3.6;;
26824;SDS011;14402;48.178;11.566;2023-04-03T00:23:07;4.7;;;3.5;;
26824;SDS011;14402;48.178;11.566;2023-04-03T00:23:37;4.7;;;3.5;;
26824;SDS011;14402;48.178;11.566;2023-04-03T00:24:07;4.7;;;3.5;;
26824;SDS011;14402;48.178;11.566;2023-04-03T00:24:38;6.1;;;3.6;;
26824;SDS011;14402;48.178;11.566;2023-04-03T00:25:08;7.5;;;3.7;;
26824;SDS011;14402;48.178;11.566;2023-04-03T00:25:38;7.5;;;3.7;;
26824;SDS011;14402;48.178;11.566;2023-04-03T00:26:08;7.5;;;3.7;;
26824;SDS011;14402;48.178;11.566;2023-04-03T00:26:38;8.0;;;3.9;;
26824;SDS011;14402;48.178;11.566;2023-04-03T00:27:08;8.5;;;4.1;;
26824;SDS011;14402;48.178;11.566;2023-04-03T00:27:38;8.5;;;4.1;;
26824;SDS011;14402;48.178;11.566;2023-04-03T00:28:08;8.5;;;4.1;;
26824;SDS011;14402;48.178;11.566;2023-04-03T00:28:38;8.1;;;3.8;;
26824;SDS011;14402;48.178;11.566;2023-04-03T00:29:08;7.6;;;3.6;;
26824;SDS011;14402;48.178;11.566;2023-04-03T00:29:38;7.6;;;3.6;;
26824;SDS011;14402;48.178;11.566;2023-04-03T00:30:09;7.6;;;3.6;;
26824;SDS011;14402;48.178;11.566;2023-04-03T00:30:38;7.1;;;3.7;;
26824;SDS011;14402;48.178;11.566;2023-04-03T00:31:09;6.7;;;3.8;;
26824;SDS011;14402;48.178;11.566;2023-04-03T00:31:39;6.7;;;3.8;;
26824;SDS011;14402;48.178;11.566;2023-04-03T00:32:09;6.7;;;3.8;;
26824;SDS011;14402;48.178;11.566;2023-04-03T00:32:39;8.4;;;3.9;;
26824;SDS011;14402;48.178;11.566;2023-04-03T00:33:10;10.0;;;4.1;;
26824;SDS011;14402;48.178;11.566;2023-04-03T00:33:39;10.0;;;4.1;;
26824;SDS011;14402;48.178;11.566;2023-04-03T00:34:09;10.0;;;4.1;;
26824;SDS011;14402;48.178;11.566;2023-04-03T00:34:39;9.1;;;4.1;;
26824;SDS011;14402;48.178;11.566;2023-04-03T00:35:09;8.1;;;4.1;;
26824;SDS011;14402;48.178;11.566;2023-04-03T00:35:39;8.1;;;4.1;;
26824;SDS011;14402;48.178;11.566;2023-04-03T00:36:10;8.1;;;4.1;;
26824;SDS011;14402;48.178;11.566;2023-04-03T00:36:40;6.0;;;3.7;;
26824;SDS011;14402;48.178;11.566;2023-04-03T00:37:10;3.9;;;3.2;;
26824;SDS011;14402;48.178;11.566;2023-04-03T00:37:40;3.9;;;3.2;;
26824;SDS011;14402;48.178;11.566;2023-04-03T00:38:10;3.9;;;3.2;;
26824;SDS011;14402;48.178;11.566;2023-04-03T00:38:40;5.4;;;3.3;;
26824;SDS011;14402;48.178;11.566;2023-04-03T00:39:10;6.8;;;3.5;;
26824;SDS011;14402;48.178;11.566;2023-04-03T00:39:40;6.8;;;3.5;;
26824;SDS011;14402;48.178;11.566;2023-04-03T00:40:11;6.8;;;3.5;;
26824;SDS011;14402;48.178;11.566;2023-04-03T00:40:41;6.2;;;3.5;;
26824;SDS011;14402;48.178;11.566;2023-04-03T00:41:10;5.7;;;3.6;;
26824;SDS011;14402;48.178;11.566;2023-04-03T00:41:40;5.7;;;3.6;;
26824;SDS011;14402;48.178;11.566;2023-04-03T00:42:11;5.7;;;3.6;;
26824;SDS011;14402;48.178;11.566;2023-04-03T00:42:41;5.4;;;3.5;;
26824;SDS011;14402;48.178;11.566;2023-04-03T00:43:11;5.2;;;3.5;;
26824;SDS011;14402;48.178;11.566;2023-04-03T00:43:41;5.2;;;3.5;;
26824;SDS011;14402;48.178;11.566;2023-04-03T00:44:19;5.2;;;3.5;;
26824;SDS011;14402;48.178;11.566;2023-04-03T00:45:22;7.4;;;3.7;;
26824;SDS011;14402;48.178;11.566;2023-04-03T00:45:25;9.7;;;3.9;;
26824;SDS011;14402;48.178;11.566;2023-04-03T00:45:42;9.7;;;3.9;;
26824;SDS011;14402;48.178;11.566;2023-04-03T00:46:11;9.7;;;3.9;;
26824;SDS011;14402;48.178;11.566;2023-04-03T00:46:41;8.1;;;3.8;;
26824;SDS011;14402;48.178;11.566;2023-04-03T00:47:12;6.6;;;3.6;;
26824;SDS011;14402;48.178;11.566;2023-04-03T00:47:42;6.6;;;3.6;;
26824;SDS011;14402;48.178;11.566;2023-04-03T00:48:14;6.6;;;3.6;;
26824;SDS011;14402;48.178;11.566;2023-04-03T00:48:42;5.4;;;3.5;;
26824;SDS011;14402;48.178;11.566;2023-04-03T00:49:12;4.2;;;3.5;;
26824;SDS011;14402;48.178;11.566;2023-04-03T00:49:42;4.2;;;3.5;;
26824;SDS011;14402;48.178;11.566;2023-04-03T00:50:12;4.2;;;3.5;;
26824;SDS011;14402;48.178;11.566;2023-04-03T00:50:42;5.8;;;3.7;;
26824;SDS011;14402;48.178;11.566;2023-04-03T00:51:13;7.4;;;3.8;;
26824;SDS011;14402;48.178;11.566;2023-04-03T00:51:42;7.4;;;3.8;;
26824;SDS011;14402;48.178;11.566;2023-04-03T00:52:13;7.4;;;3.8;;
26824;SDS011;14402;48.178;11.566;2023-04-03T00:52:42;7.0;;;3.7;;
26824;SDS011;14402;48.178;11.566;2023-04-03T00:53:13;6.6;;;3.5;;
26824;SDS011;14402;48.178;11.566;2023-04-03T00:53:43;6.6;;;3.5;;
26824;SDS011;14402;48.178;11.566;2023-04-03T00:54:13;6.6;;;3.5;;
26824;SDS011;14402;48.178;11.566;2023-04-03T00:54:43;7.9;;;3.6;;
26824;SDS011;14402;48.178;11.566;2023-04-03T00:55:13;9.3;;;3.7;;
26824;SDS011;14402;48.178;11.566;2023-04-03T00:55:43;9.3;;;3.7;;
26824;SDS011;14402;48.178;11.566;2023-04-03T00:56:13;9.3;;;3.7;;
26824;SDS011;14402;48.178;11.566;2023-04-03T00:56:43;8.1;;;3.7;;
26824;SDS011;14402;48.178;11.566;2023-04-03T00:57:13;7.0;;;3.6;;
26824;SDS011;14402;48.178;11.566;2023-04-03T00:57:43;7.0;;;3.6;;
26824;SDS011;14402;48.178;11.566;2023-04-03T00:58:14;7.0;;;3.6;;
26824;SDS011;14402;48.178;11.566;2023-04-03T00:58:44;7.4;;;3.8;;
26824;SDS011;14402;48.178;11.566;2023-04-03T00:59:14;7.8;;;4.0;;
26824;SDS011;14402;48.178;11.566;2023-04-03T00:59:46;7.8;;;4.0;;
26824;SDS011;14402;48.178;11.566;2023-04-03T01:00:14;7.8;;;4.0;;
26824;SDS011;14402;48.178;11.566;2023-04-03T01:00:44;6.7;;;3.7;;
26824;SDS011;14402;48.178;11.566;2023-04-03T01:01:15;5.6;;;3.4;;
26824;SDS011;14402;48.178;11.566;2023-04-03T01:01:44;5.6;;;3.4;;
26824;SDS011;14402;48.178;11.566;2023-04-03T01:02:14;5.6;;;3.4;;
26824;SDS011;14402;48.178;11.566;2023-04-03T01:02:44;6.3;;;3.5;;
26824;SDS011;14402;48.178;11.566;2023-04-03T01:03:14;7.1;;;3.5;;
26824;SDS011;14402;48.178;11.566;2023-04-03T01:03:44;7.1;;;3.5;;
26824;SDS011;14402;48.178;11.566;2023-04-03T01:04:25;7.1;;;3.5;;
26824;SDS011;14402;48.178;11.566;2023-04-03T01:04:44;7.6;;;3.6;;
26824;SDS011;14402;48.178;11.566;2023-04-03T01:05:15;8.0;;;3.7;;
26824;SDS011;14402;48.178;11.566;2023-04-03T01:05:45;8.0;;;3.7;;
26824;SDS011;14402;48.178;11.566;2023-04-03T01:06:16;8.0;;;3.7;;
26824;SDS011;14402;48.178;11.566;2023-04-03T01:06:45;5.9;;;3.6;;
26824;SDS011;14402;48.178;11.566;2023-04-03T01:07:15;3.9;;;3.4;;
26824;SDS011;14402;48.178;11.566;2023-04-03T01:07:45;3.9;;;3.4;;
26824;SDS011;14402;48.178;11.566;2023-04-03T01:08:15;3.9;;;3.4;;
26824;SDS011;14402;48.178;11.566;2023-04-03T01:08:45;4.9;;;3.5;;
26824;SDS011;14402;48.178;11.566;2023-04-03T01:09:15;6.0;;;3.5;;
26824;SDS011;14402;48.178;11.566;2023-04-03T01:09:45;6.0;;;3.5;;
26824;SDS011;14402;48.178;11.566;2023-04-03T01:10:16;6.0;;;3.5;;
26824;SDS011;14402;48.178;11.566;2023-04-03T01:10:45;5.6;;;3.4;;
26824;SDS011;14402;48.178;11.566;2023-04-03T01:11:16;5.1;;;3.3;;
26824;SDS011;14402;48.178;11.566;2023-04-03T01:11:46;5.1;;;3.3;;
26824;SDS011;14402;48.178;11.566;2023-04-03T01:12:16;5.1;;;3.3;;
26824;SDS011;14402;48.178;11.566;2023-04-03T01:12:47;6.6;;;3.4;;
26824;SDS011;14402;48.178;11.566;2023-04-03T01:13:19;8.1;;;3.5;;
26824;SDS011;14402;48.178;11.566;2023-04-03T01:13:46;8.1;;;3.5;;
26824;SDS011;14402;48.178;11.566;2023-04-03T01:14:16;8.1;;;3.5;;
26824;SDS011;14402;48.178;11.566;2023-04-03T01:14:48;7.3;;;3.5;;
26824;SDS011;14402;48.178;11.566;2023-04-03T01:15:17;6.5;;;3.6;;
26824;SDS011;14402;48.178;11.566;2023-04-03T01:15:46;6.5;;;3.6;;
26824;SDS011;14402;48.178;11.566;2023-04-03T01:16:17;6.5;;;3.6;;
26824;SDS011;14402;48.178;11.566;2023-04-03T01:16:51;11.6;;;4.0;;
26824;SDS011;14402;48.178;11.566;2023-04-03T01:17:27;16.8;;;4.3;;
26824;SDS011;14402;48.178;11.566;2023-04-03T01:17:47;16.8;;;4.3;;
26824;SDS011;14402;48.178;11.566;2023-04-03T01:18:17;16.8;;;4.3;;
26824;SDS011;14402;48.178;11.566;2023-04-03T01:18:47;13.9;;;4.0;;
26824;SDS011;14402;48.178;11.566;2023-04-03T01:19:17;11.1;;;3.6;;
26824;SDS011;14402;48.178;11.566;2023-04-03T01:19:47;11.1;;;3.6;;
26824;SDS011;14402;48.178;11.566;2023-04-03T01:20:53;11.1;;;3.6;;
26824;SDS011;14402;48.178;11.566;2023-04-03T01:21:08;8.2;;;3.5;;
26824;SDS011;14402;48.178;11.566;2023-04-03T01:22:22;5.3;;;3.4;;
26824;SDS011;14402;48.178;11.566;2023-04-03T01:22:25;5.3;;;3.4;;
26824;SDS011;14402;48.178;11.566;2023-04-03T01:22:27;5.3;;;3.4;;
26824;SDS011;14402;48.178;11.566;2023-04-03T01:22:48;5.4;;;3.4;;
26824;SDS011;14402;48.178;11.566;2023-04-03T01:23:22;5.5;;;3.4;;
26824;SDS011;14402;48.178;11.566;2023-04-03T01:23:52;5.5;;;3.4;;
26824;SDS011;14402;48.178;11.566;2023-04-03T01:24:21;5.5;;;3.4;;
26824;SDS011;14402;48.178;11.566;2023-04-03T01:24:48;7.3;;;3.5;;
26824;SDS011;14402;48.178;11.566;2023-04-03T01:25:18;9.2;;;3.6;;
26824;SDS011;14402;48.178;11.566;2023-04-03T01:25:49;9.2;;;3.6;;
26824;SDS011;14402;48.178;11.566;2023-04-03T01:26:18;9.2;;;3.6;;
26824;SDS011;14402;48.178;11.566;2023-04-03T01:26:48;6.9;;;3.4;;
26824;SDS011;14402;48.178;11.566;2023-04-03T01:27:18;4.6;;;3.2;;
26824;SDS011;14402;48.178;11.566;2023-04-03T01:27:49;4.6;;;3.2;;
26824;SDS011;14402;48.178;11.566;2023-04-03T01:28:20;4.6;;;3.2;;
26824;SDS011;14402;48.178;11.566;2023-04-03T01:28:49;4.6;;;3.3;;
26824;SDS011;14402;48.178;11.566;2023-04-03T01:29:19;4.7;;;3.4;;
26824;SDS011;14402;48.178;11.566;2023-04-03T01:29:49;4.7;;;3.4;;
26824;SDS011;14402;48.178;11.566;2023-04-03T01:30:21;4.7;;;3.4;;
26824;SDS011;14402;48.178;11.566;2023-04-03T01:30:50;5.1;;;3.4;;
26824;SDS011;14402;48.178;11.566;2023-04-03T01:31:20;5.6;;;3.4;;
26824;SDS011;14402;48.178;11.566;2023-04-03T01:31:50;5.6;;;3.4;;
26824;SDS011;14402;48.178;11.566;2023-04-03T01:32:19;5.6;;;3.4;;
26824;SDS011;14402;48.178;11.566;2023-04-03T01:32:49;6.6;;;3.3;;
26824;SDS011;14402;48.178;11.566;2023-04-03T01:33:19;7.5;;;3.2;;
26824;SDS011;14402;48.178;11.566;2023-04-03T01:33:50;7.5;;;3.2;;
26824;SDS011;14402;48.178;11.566;2023-04-03T01:34:20;7.5;;;3.2;;
26824;SDS011;14402;48.178;11.566;2023-04-03T01:34:50;6.9;;;3.3;;
26824;SDS011;14402;48.178;11.566;2023-04-03T01:35:20;6.3;;;3.5;;
26824;SDS011;14402;48.178;11.566;2023-04-03T01:35:50;6.3;;;3.5;;
26824;SDS011;14402;48.178;11.566;2023-04-03T01:36:21;6.3;;;3.5;;
26824;SDS011;14402;48.178;11.566;2023-04-03T01:36:50;5.9;;;3.5;;
26824;SDS011;14402;48.178;11.566;2023-04-03T01:37:20;5.5;;;3.5;;
26824;SDS011;14402;48.178;11.566;2023-04-03T01:37:50;5.5;;;3.5;;
26824;SDS011;14402;48.178;11.566;2023-04-03T01:38:20;5.5;;;3.5;;
26824;SDS011;14402;48.178;11.566;2023-04-03T01:38:50;5.4;;;3.3;;
26824;SDS011;14402;48.178;11.566;2023-04-03T01:39:20;5.3;;;3.2;;
26824;SDS011;14402;48.178;11.566;2023-04-03T01:39:50;5.3;;;3.2;;
26824;SDS011;14402;48.178;11.566;2023-04-03T01:40:21;5.3;;;3.2;;
26824;SDS011;14402;48.178;11.566;2023-04-03T01:40:51;5.3;;;3.2;;
26824;SDS011;14402;48.178;11.566;2023-04-03T01:41:21;5.3;;;3.3;;
26824;SDS011;14402;48.178;11.566;2023-04-03T01:41:51;5.3;;;3.3;;
26824;SDS011;14402;48.178;11.566;2023-04-03T01:42:21;5.3;;;3.3;;
26824;SDS011;14402;48.178;11.566;2023-04-03T01:42:51;5.0;;;3.2;;
26824;SDS011;14402;48.178;11.566;2023-04-03T01:43:21;4.7;;;3.2;;
26824;SDS011;14402;48.178;11.566;2023-04-03T01:43:51;4.7;;;3.2;;
26824;SDS011;14402;48.178;11.566;2023-04-03T01:44:21;4.7;;;3.2;;
26824;SDS011;14402;48.178;11.566;2023-04-03T01:44:51;8.0;;;4.2;;
26824;SDS011;14402;48.178;11.566;2023-04-03T01:45:21;11.4;;;5.2;;
26824;SDS011;14402;48.178;11.566;2023-04-03T01:45:52;11.4;;;5.2;;
26824;SDS011;14402;48.178;11.566;2023-04-03T01:46:22;11.4;;;5.2;;
26824;SDS011;14402;48.178;11.566;2023-04-03T01:46:52;11.7;;;4.9;;
26824;SDS011;14402;48.178;11.566;2023-04-03T01:47:22;12.0;;;4.7;;
26824;SDS011;14402;48.178;11.566;2023-04-03T01:47:52;12.0;;;4.7;;
26824;SDS011;14402;48.178;11.566;2023-04-03T01:48:22;12.0;;;4.7;;
26824;SDS011;14402;48.178;11.566;2023-04-03T01:48:52;11.4;;;4.1;;
26824;SDS011;14402;48.178;11.566;2023-04-03T01:49:22;10.8;;;3.6;;
26824;SDS011;14402;48.178;11.566;2023-04-03T01:49:52;10.8;;;3.6;;
26824;SDS011;14402;48.178;11.566;2023-04-03T01:50:22;10.8;;;3.6;;
26824;SDS011;14402;48.178;11.566;2023-04-03T01:50:53;9.5;;;3.4;;
26824;SDS011;14402;48.178;11.566;2023-04-03T01:51:22;8.2;;;3.2;;
26824;SDS011;14402;48.178;11.566;2023-04-03T01:51:53;8.2;;;3.2;;
26824;SDS011;14402;48.178;11.566;2023-04-03T01:52:23;8.2;;;3.2;;
26824;SDS011;14402;48.178;11.566;2023-04-03T01:52:53;7.1;;;3.3;;
26824;SDS011;14402;48.178;11.566;2023-04-03T01:53:23;5.9;;;3.4;;
26824;SDS011;14402;48.178;11.566;2023-04-03T01:53:53;5.9;;;3.4;;
26824;SDS011;14402;48.178;11.566;2023-04-03T01:54:23;5.9;;;3.4;;
26824;SDS011;14402;48.178;11.566;2023-04-03T01:54:53;6.1;;;3.2;;
26824;SDS011;14402;48.178;11.566;2023-04-03T01:55:23;6.3;;;3.0;;
26824;SDS011;14402;48.178;11.566;2023-04-03T01:55:53;6.3;;;3.0;;
26824;SDS011;14402;48.178;11.566;2023-04-03T01:56:23;6.3;;;3.0;;
26824;SDS011;14402;48.178;11.566;2023-04-03T01:56:53;6.9;;;3.2;;
26824;SDS011;14402;48.178;11.566;2023-04-03T01:57:23;7.4;;;3.5;;
26824;SDS011;14402;48.178;11.566;2023-04-03T01:57:53;7.4;;;3.5;;
26824;SDS011;14402;48.178;11.566;2023-04-03T01:58:24;7.4;;;3.5;;
26824;SDS011;14402;48.178;11.566;2023-04-03T01:58:54;6.1;;;3.9;;
26824;SDS011;14402;48.178;11.566;2023-04-03T01:59:24;4.8;;;4.3;;
26824;SDS011;14402;48.178;11.566;2023-04-03T01:59:54;4.8;;;4.3;;
26824;SDS011;14402;48.178;11.566;2023-04-03T02:00:24;4.8;;;4.3;;
26824;SDS011;14402;48.178;11.566;2023-04-03T02:00:54;4.7;;;4.0;;
26824;SDS011;14402;48.178;11.566;2023-04-03T02:01:24;4.6;;;3.6;;
26824;SDS011;14402;48.178;11.566;2023-04-03T02:01:54;4.6;;;3.6;;
26824;SDS011;14402;48.178;11.566;2023-04-03T02:02:24;5.3;;;3.4;;
26824;SDS011;14402;48.178;11.566;2023-04-03T02:02:54;6.1;;;3.2;;
26824;SDS011;14402;48.178;11.566;2023-04-03T02:03:24;6.1;;;3.2;;
26824;SDS011;14402;48.178;11.566;2023-04-03T02:03:55;6.1;;;3.2;;
26824;SDS011;14402;48.178;11.566;2023-04-03T02:04:25;5.3;;;3.1;;
26824;SDS011;14402;48.178;11.566;2023-04-03T02:04:55;4.5;;;2.9;;
26824;SDS011;14402;48.178;11.566;2023-04-03T02:05:25;4.5;;;2.9;;
26824;SDS011;14402;48.178;11.566;2023-04-03T02:05:55;4.5;;;2.9;;
26824;SDS011;14402;48.178;11.566;2023-04-03T02:06:25;7.6;;;3.2;;
26824;SDS011;14402;48.178;11.566;2023-04-03T02:06:55;10.6;;;3.4;;
26824;SDS011;14402;48.178;11.566;2023-04-03T02:07:25;10.6;;;3.4;;
26824;SDS011;14402;48.178;11.566;2023-04-03T02:07:55;10.6;;;3.4;;
26824;SDS011;14402;48.178;11.566;2023-04-03T02:08:25;10.0;;;3.5;;
26824;SDS011;14402;48.178;11.566;2023-04-03T02:08:55;9.4;;;3.5;;
26824;SDS011;14402;48.178;11.566;2023-04-03T02:09:25;9.4;;;3.5;;
26824;SDS011;14402;48.178;11.566;2023-04-03T02:09:56;9.4;;;3.5;;
26824;SDS011;14402;48.178;11.566;2023-04-03T02:10:26;7.6;;;3.3;;
26824;SDS011;14402;48.178;11.566;2023-04-03T02:10:56;5.8;;;3.1;;
26824;SDS011;14402;48.178;11.566;2023-04-03T02:11:26;5.8;;;3.1;;
26824;SDS011;14402;48.178;11.566;2023-04-03T02:11:56;5.8;;;3.1;;
26824;SDS011;14402;48.178;11.566;2023-04-03T02:12:26;7.1;;;3.2;;
26824;SDS011;14402;48.178;11.566;2023-04-03T02:12:56;8.4;;;3.3;;
26824;SDS011;14402;48.178;11.566;2023-04-03T02:13:26;8.4;;;3.3;;
26824;SDS011;14402;48.178;11.566;2023-04-03T02:13:56;8.4;;;3.3;;
26824;SDS011;14402;48.178;11.566;2023-04-03T02:14:26;8.0;;;3.2;;
26824;SDS011;14402;48.178;11.566;2023-04-03T02:14:56;7.6;;;3.2;;
26824;SDS011;14402;48.178;11.566;2023-04-03T02:15:26;7.6;;;3.2;;
26824;SDS011;14402;48.178;11.566;2023-04-03T02:15:57;7.6;;;3.2;;
26824;SDS011;14402;48.178;11.566;2023-04-03T02:16:27;9.4;;;3.3;;
26824;SDS011;14402;48.178;11.566;2023-04-03T02:16:57;11.2;;;3.4;;
26824;SDS011;14402;48.178;11.566;2023-04-03T02:17:28;11.2;;;3.4;;
26824;SDS011;14402;48.178;11.566;2023-04-03T02:17:57;11.2;;;3.4;;
26824;SDS011;14402;48.178;11.566;2023-04-03T02:18:27;7.2;;;3.2;;
26824;SDS011;14402;48.178;11.566;2023-04-03T02:18:57;3.2;;;2.9;;
26824;SDS011;14402;48.178;11.566;2023-04-03T02:19:27;3.2;;;2.9;;
26824;SDS011;14402;48.178;11.566;2023-04-03T02:19:57;3.2;;;2.9;;
26824;SDS011;14402;48.178;11.566;2023-04-03T02:20:27;4.9;;;2.9;;
26824;SDS011;14402;48.178;11.566;2023-04-03T02:20:57;6.7;;;2.9;;
26824;SDS011;14402;48.178;11.566;2023-04-03T02:21:27;6.7;;;2.9;;
26824;SDS011;14402;48.178;11.566;2023-04-03T02:21:58;6.7;;;2.9;;
26824;SDS011;14402;48.178;11.566;2023-04-03T02:22:28;7.0;;;3.1;;
26824;SDS011;14402;48.178;11.566;2023-04-03T02:22:58;7.3;;;3.2;;
26824;SDS011;14402;48.178;11.566;2023-04-03T02:23:28;7.3;;;3.2;;
26824;SDS011;14402;48.178;11.566;2023-04-03T02:23:58;7.3;;;3.2;;
26824;SDS011;14402;48.178;11.566;2023-04-03T02:24:28;5.9;;;3.3;;
26824;SDS011;14402;48.178;11.566;2023-04-03T02:24:58;4.6;;;3.4;;
26824;SDS011;14402;48.178;11.566;2023-04-03T02:25:29;4.6;;;3.4;;
26824;SDS011;14402;48.178;11.566;2023-04-03T02:26:02;4.6;;;3.4;;
26824;SDS011;14402;48.178;11.566;2023-04-03T02:26:28;4.9;;;3.1;;
26824;SDS011;14402;48.178;11.566;2023-04-03T02:26:58;5.3;;;2.7;;
26824;SDS011;14402;48.178;11.566;2023-04-03T02:27:29;5.3;;;2.7;;
26824;SDS011;14402;48.178;11.566;2023-04-03T02:27:59;5.3;;;2.7;;
26824;SDS011;14402;48.178;11.566;2023-04-03T02:28:29;6.9;;;2.8;;
26824;SDS011;14402;48.178;11.566;2023-04-03T02:28:59;8.5;;;2.9;;
26824;SDS011;14402;48.178;11.566;2023-04-03T02:29:29;8.5;;;2.9;;
26824;SDS011;14402;48.178;11.566;2023-04-03T02:29:59;8.5;;;2.9;;
26824;SDS011;14402;48.178;11.566;2023-04-03T02:30:29;7.4;;;3.0;;
26824;SDS011;14402;48.178;11.566;2023-04-03T02:30:59;6.4;;;3.1;;
26824;SDS011;14402;48.178;11.566;2023-04-03T02:31:29;6.4;;;3.1;;
26824;SDS011;14402;48.178;11.566;2023-04-03T02:31:59;6.4;;;3.1;;
26824;SDS011;14402;48.178;11.566;2023-04-03T02:32:29;5.4;;;3.0;;
26824;SDS011;14402;48.178;11.566;2023-04-03T02:32:59;4.3;;;2.9;;
26824;SDS011;14402;48.178;11.566;2023-04-03T02:33:30;4.3;;;2.9;;
26824;SDS011;14402;48.178;11.566;2023-04-03T02:34:00;4.3;;;2.9;;
26824;SDS011;14402;48.178;11.566;2023-04-03T02:34:30;4.1;;;2.8;;
26824;SDS011;14402;48.178;11.566;2023-04-03T02:35:00;3.9;;;2.8;;
26824;SDS011;14402;48.178;11.566;2023-04-03T02:35:30;3.9;;;2.8;;
26824;SDS011;14402;48.178;11.566;2023-04-03T02:36:00;3.9;;;2.8;;
26824;SDS011;14402;48.178;11.566;2023-04-03T02:36:30;5.2;;;3.0;;
26824;SDS011;14402;48.178;11.566;2023-04-03T02:37:00;6.4;;;3.3;;
26824;SDS011;14402;48.178;11.566;2023-04-03T02:37:30;6.4;;;3.3;;
26824;SDS011;14402;48.178;11.566;2023-04-03T02:38:00;6.4;;;3.3;;
26824;SDS011;14402;48.178;11.566;2023-04-03T02:38:30;7.4;;;4.6;;
26824;SDS011;14402;48.178;11.566;2023-04-03T02:39:00;8.5;;;5.9;;
26824;SDS011;14402;48.178;11.566;2023-04-03T02:39:31;8.5;;;5.9;;
26824;SDS011;14402;48.178;11.566;2023-04-03T02:40:01;8.5;;;5.9;;
26824;SDS011;14402;48.178;11.566;2023-04-03T02:40:31;10.1;;;4.6;;
26824;SDS011;14402;48.178;11.566;2023-04-03T02:41:01;11.8;;;3.3;;
26824;SDS011;14402;48.178;11.566;2023-04-03T02:41:31;11.8;;;3.3;;
26824;SDS011;14402;48.178;11.566;2023-04-03T02:42:01;11.8;;;3.3;;
26824;SDS011;14402;48.178;11.566;2023-04-03T02:42:31;7.6;;;3.0;;
26824;SDS011;14402;48.178;11.566;2023-04-03T02:43:01;3.4;;;2.8;;
26824;SDS011;14402;48.178;11.566;2023-04-03T02:43:31;3.4;;;2.8;;
26824;SDS011;14402;48.178;11.566;2023-04-03T02:44:02;3.4;;;2.8;;
26824;SDS011;14402;48.178;11.566;2023-04-03T02:44:31;8.2;;;3.0;;
26824;SDS011;14402;48.178;11.566;2023-04-03T02:45:01;13.1;;;3.2;;
26824;SDS011;14402;48.178;11.566;2023-04-03T02:45:32;13.1;;;3.2;;
26824;SDS011;14402;48.178;11.566;2023-04-03T02:46:02;13.1;;;3.2;;
26824;SDS011;14402;48.178;11.566;2023-04-03T02:46:32;9.0;;;3.0;;
26824;SDS011;14402;48.178;11.566;2023-04-03T02:47:02;4.8;;;2.8;;
26824;SDS011;14402;48.178;11.566;2023-04-03T02:47:32;4.8;;;2.8;;
26824;SDS011;14402;48.178;11.566;2023-04-03T02:48:02;4.8;;;2.8;;
26824;SDS011;14402;48.178;11.566;2023-04-03T02:48:32;5.0;;;3.0;;
26824;SDS011;14402;48.178;11.566;2023-04-03T02:49:02;5.2;;;3.2;;
26824;SDS011;14402;48.178;11.566;2023-04-03T02:49:32;5.2;;;3.2;;
26824;SDS011;14402;48.178;11.566;2023-04-03T02:50:02;5.2;;;3.2;;
26824;SDS011;14402;48.178;11.566;2023-04-03T02:50:32;8.7;;;3.2;;
26824;SDS011;14402;48.178;11.566;2023-04-03T02:51:03;12.2;;;3.3;;
26824;SDS011;14402;48.178;11.566;2023-04-03T02:51:33;12.2;;;3.3;;
26824;SDS011;14402;48.178;11.566;2023-04-03T02:52:03;12.2;;;3.3;;
26824;SDS011;14402;48.178;11.566;2023-04-03T02:52:33;7.4;;;2.8;;
26824;SDS011;14402;48.178;11.566;2023-04-03T02:53:03;2.7;;;2.3;;
26824;SDS011;14402;48.178;11.566;2023-04-03T02:53:33;2.7;;;2.3;;
26824;SDS011;14402;48.178;11.566;2023-04-03T02:54:03;2.7;;;2.3;;
26824;SDS011;14402;48.178;11.566;2023-04-03T02:54:33;5.8;;;2.8;;
26824;SDS011;14402;48.178;11.566;2023-04-03T02:55:03;8.8;;;3.2;;
26824;SDS011;14402;48.178;11.566;2023-04-03T02:55:33;8.8;;;3.2;;
26824;SDS011;14402;48.178;11.566;2023-04-03T02:56:03;8.8;;;3.2;;
26824;SDS011;14402;48.178;11.566;2023-04-03T02:56:33;7.4;;;3.0;;
26824;SDS011;14402;48.178;11.566;2023-04-03T02:57:03;6.1;;;2.8;;
26824;SDS011;14402;48.178;11.566;2023-04-03T02:57:34;6.1;;;2.8;;
26824;SDS011;14402;48.178;11.566;2023-04-03T02:58:04;6.1;;;2.8;;
26824;SDS011;14402;48.178;11.566;2023-04-03T02:58:34;9.4;;;3.2;;
26824;SDS011;14402;48.178;11.566;2023-04-03T02:59:04;12.6;;;3.7;;
26824;SDS011;14402;48.178;11.566;2023-04-03T02:59:34;12.6;;;3.7;;
26824;SDS011;14402;48.178;11.566;2023-04-03T03:00:04;12.6;;;3.7;;
26824;SDS011;14402;48.178;11.566;2023-04-03T03:00:34;7.7;;;3.1;;
26824;SDS011;14402;48.178;11.566;2023-04-03T03:01:04;2.8;;;2.5;;
26824;SDS011;14402;48.178;11.566;2023-04-03T03:01:34;2.8;;;2.5;;
26824;SDS011;14402;48.178;11.566;2023-04-03T03:02:04;2.8;;;2.5;;
26824;SDS011;14402;48.178;11.566;2023-04-03T03:02:34;4.2;;;2.5;;
26824;SDS011;14402;48.178;11.566;2023-04-03T03:03:04;5.7;;;2.4;;
26824;SDS011;14402;48.178;11.566;2023-04-03T03:03:35;5.7;;;2.4;;